Main page
METAR-TAF:

METAR-TAF

Airports :

Linate Airport

Milan, Italy

latitude: 45-26N, longitude: 009-17E, elevation: 107 m

Current weather observation

The report was made 6 hours and 32 minutes ago, at 20:50 UTC
Wind 5 kt from the East/Northeast
Temperature 27°C
Humidity 62%
Pressure 1017 hPa
Visibility 10 km or more
no clouds below 1500 m and no cumulonimbus

METAR: LIML 192050Z 06005KT CAVOK 27/19 Q1017 NOSIG

Time: 05:22 (03:22 UTC)

Forecast

The report was made 4 hours and 22 minutes ago, at 23:00 UTC
Forecast valid from 20 at 00 UTC to 20 at 24 UTC
Wind 5 kt from variable directions
Visibility 10 km or more
no clouds below 1500 m and no cumulonimbus

TAF: LIML 192300Z 2000/2024 VRB05KT CAVOK

Weather observations and forecasts of more than 4000 airports (METAR and TAF reports).

The available stations are represented by yellow and red dots on the map.

Hover mouse over dot to see the name of the station.

Then click to see weather observations and forecasts.

To change the map : click on the green buttons with a black cross to zoom in, on the green button with a dash to zoom out, or on the green arrows for adjacent maps.


METAR-TAF: